Time;durP1;ratioP1;P1;durP2;ratioP2;P2;SDS_P1;SDS_P2;PMS_P1;PMS_P2;Temp;Humidity;BMP_temperature;BMP_pressure;BME280_temperature;BME280_humidity;BME280_pressure;Samples;Min_cycle;Max_cycle;Signal;HPM_P1;HPM_P2
2022/07/15 00:02:08;;;;;;;11.68;2.30;;;16.10;99.90;;;;;;4993326;28;25094;-61
2022/07/15 00:04:35;;;;;;;7.15;2.65;;;16.10;99.90;;;;;;4996014;28;25104;-61
2022/07/15 00:07:01;;;;;;;10.23;2.58;;;16.10;99.90;;;;;;4989004;28;25125;-61
2022/07/15 00:12:11;;;;;;;8.35;1.70;;;16.00;99.90;;;;;;5005975;28;25074;-61
2022/07/15 00:14:38;;;;;;;10.13;2.55;;;16.00;99.90;;;;;;5007255;28;25106;-62
2022/07/15 00:17:06;;;;;;;7.50;2.10;;;16.10;99.90;;;;;;5001918;28;25061;-63
2022/07/15 00:19:32;;;;;;;13.65;2.97;;;16.00;99.90;;;;;;4993598;28;25070;-61
2022/07/15 00:21:58;;;;;;;12.38;2.58;;;16.00;99.90;;;;;;4983924;28;25096;-61
2022/07/15 00:24:23;;;;;;;7.25;1.80;;;16.00;99.90;;;;;;4992842;28;25116;-61
2022/07/15 00:26:49;;;;;;;9.93;2.03;;;16.00;99.90;;;;;;4995711;28;25061;-62
2022/07/15 00:29:14;;;;;;;8.95;2.35;;;16.00;99.90;;;;;;4997445;28;25064;-61
2022/07/15 00:31:40;;;;;;;9.85;2.15;;;16.00;99.90;;;;;;4990011;28;25088;-61
2022/07/15 00:34:05;;;;;;;7.32;2.88;;;15.90;99.90;;;;;;4993539;28;25055;-62
2022/07/15 00:36:31;;;;;;;7.38;2.28;;;15.90;99.90;;;;;;4989511;28;25100;-62
2022/07/15 00:38:57;;;;;;;11.38;2.53;;;15.90;99.90;;;;;;4994057;28;25069;-62
2022/07/15 00:41:23;;;;;;;10.23;2.60;;;15.90;99.90;;;;;;4991496;28;25059;-62
2022/07/15 00:43:48;;;;;;;7.13;2.15;;;15.80;99.90;;;;;;4991438;28;25071;-62
2022/07/15 00:46:18;;;;;;;9.70;1.80;;;15.80;99.90;;;;;;4996396;28;25146;-61
2022/07/15 00:48:45;;;;;;;7.43;2.20;;;15.90;99.90;;;;;;5000199;28;25075;-61
2022/07/15 00:51:10;;;;;;;6.28;2.00;;;15.90;99.90;;;;;;4996607;28;25070;-61
2022/07/15 00:53:38;;;;;;;7.40;2.17;;;15.80;99.90;;;;;;4994060;28;25055;-61
2022/07/15 00:56:08;;;;;;;11.15;2.25;;;15.80;99.90;;;;;;4991255;28;25124;-61
2022/07/15 00:58:37;;;;;;;8.48;2.30;;;15.80;99.90;;;;;;4993655;28;25162;-61
2022/07/15 01:01:03;;;;;;;10.55;2.40;;;15.80;99.90;;;;;;4990968;28;25054;-62
2022/07/15 01:03:31;;;;;;;8.13;1.95;;;15.80;99.90;;;;;;4990277;28;25062;-62
2022/07/15 01:05:57;;;;;;;7.80;2.03;;;15.80;99.90;;;;;;4990390;28;25058;-61
2022/07/15 01:08:23;;;;;;;7.43;2.00;;;15.80;99.90;;;;;;4987003;28;25079;-61
2022/07/15 01:10:50;;;;;;;10.15;1.98;;;15.70;99.90;;;;;;4991812;28;25159;-62
2022/07/15 01:13:16;;;;;;;11.27;1.98;;;15.60;99.90;;;;;;4994141;28;25070;-61
2022/07/15 01:15:42;;;;;;;12.82;2.60;;;15.60;99.90;;;;;;4980447;28;25087;-62
2022/07/15 01:18:07;;;;;;;3.40;1.70;;;15.60;99.90;;;;;;4990849;28;25085;-61
2022/07/15 01:20:33;;;;;;;9.85;2.65;;;15.60;99.90;;;;;;4987635;28;25063;-62
2022/07/15 01:23:00;;;;;;;7.07;1.60;;;15.60;99.90;;;;;;4987745;28;25046;-62
2022/07/15 01:25:26;;;;;;;6.22;2.00;;;15.60;99.90;;;;;;4994133;28;25073;-61
2022/07/15 01:27:52;;;;;;;6.18;1.73;;;15.60;99.90;;;;;;4998322;28;25150;-62
2022/07/15 01:30:17;;;;;;;14.73;2.55;;;15.60;99.90;;;;;;4988194;28;25154;-61
2022/07/15 01:32:43;;;;;;;5.22;1.60;;;15.60;99.90;;;;;;4987128;28;25051;-61
2022/07/15 01:35:09;;;;;;;8.70;2.55;;;15.70;99.90;;;;;;5000902;28;25151;-61
2022/07/15 01:37:34;;;;;;;5.30;1.73;;;15.60;99.90;;;;;;4992055;28;25075;-61
2022/07/15 01:40:00;;;;;;;7.28;1.77;;;15.60;99.90;;;;;;4996644;28;25069;-61
2022/07/15 01:42:25;;;;;;;6.60;2.22;;;15.60;99.90;;;;;;4992870;28;25068;-61
2022/07/15 01:44:51;;;;;;;6.22;2.03;;;15.60;99.90;;;;;;4988460;28;25073;-61
2022/07/15 01:47:17;;;;;;;7.95;2.08;;;15.60;99.90;;;;;;4998286;28;25166;-61
2022/07/15 01:49:42;;;;;;;6.57;1.50;;;15.60;99.90;;;;;;4987746;28;25076;-61
2022/07/15 01:52:09;;;;;;;9.73;1.88;;;15.60;99.90;;;;;;4994695;28;25066;-63
2022/07/15 01:54:35;;;;;;;10.30;2.05;;;15.60;99.90;;;;;;4997914;28;25092;-61
2022/07/15 01:57:01;;;;;;;9.32;2.05;;;15.60;99.90;;;;;;5000967;28;25082;-62
2022/07/15 01:59:27;;;;;;;6.15;1.88;;;15.50;99.90;;;;;;4988115;28;25151;-61
2022/07/15 02:01:54;;;;;;;6.30;1.73;;;15.50;99.90;;;;;;4997298;28;25073;-61
2022/07/15 02:04:21;;;;;;;12.60;2.13;;;15.50;99.90;;;;;;4987378;28;25069;-62
2022/07/15 02:06:47;;;;;;;12.75;2.00;;;15.50;99.90;;;;;;5001134;28;25115;-62
2022/07/15 02:09:13;;;;;;;6.82;1.60;;;15.50;99.90;;;;;;4998607;28;25128;-61
2022/07/15 02:11:39;;;;;;;8.25;2.47;;;15.40;99.90;;;;;;4982513;28;25148;-62
2022/07/15 02:14:04;;;;;;;9.05;1.90;;;15.40;99.90;;;;;;4992773;28;25130;-62
2022/07/15 02:16:31;;;;;;;6.15;1.83;;;15.40;99.90;;;;;;4979883;28;25107;-62
2022/07/15 02:18:58;;;;;;;7.18;1.88;;;15.40;99.90;;;;;;4992743;28;25087;-61
2022/07/15 02:21:26;;;;;;;8.05;2.40;;;15.50;99.90;;;;;;4986742;28;25067;-61
2022/07/15 02:23:52;;;;;;;8.80;1.85;;;15.50;99.90;;;;;;4998932;28;25145;-61
2022/07/15 02:26:18;;;;;;;12.40;2.20;;;15.50;99.90;;;;;;4991481;28;25084;-62
2022/07/15 02:28:43;;;;;;;10.38;2.08;;;15.50;99.90;;;;;;4990583;28;25101;-62
2022/07/15 02:31:09;;;;;;;10.00;1.92;;;15.50;99.90;;;;;;4988616;28;25068;-61
2022/07/15 02:33:35;;;;;;;4.75;1.75;;;15.50;99.90;;;;;;4989190;28;25054;-61
2022/07/15 02:36:00;;;;;;;8.32;2.75;;;15.40;99.90;;;;;;5001720;28;25103;-63
2022/07/15 02:38:26;;;;;;;8.90;1.80;;;15.50;99.90;;;;;;4996093;28;25078;-61
2022/07/15 02:40:52;;;;;;;8.05;1.33;;;15.40;99.90;;;;;;4985237;28;25086;-62
2022/07/15 02:43:17;;;;;;;7.03;1.65;;;15.30;99.90;;;;;;4981784;28;25060;-61
2022/07/15 02:45:44;;;;;;;9.15;1.50;;;15.40;99.90;;;;;;4978438;28;25171;-62
2022/07/15 02:48:09;;;;;;;5.20;1.48;;;15.40;99.90;;;;;;4982570;28;25137;-62
2022/07/15 02:50:35;;;;;;;3.42;1.70;;;15.40;99.90;;;;;;4988357;28;25063;-61
2022/07/15 02:53:02;;;;;;;8.63;2.33;;;15.40;99.90;;;;;;5001889;28;25212;-62
2022/07/15 02:55:28;;;;;;;11.73;2.30;;;15.40;99.90;;;;;;4997597;28;25096;-61
2022/07/15 02:57:53;;;;;;;7.65;1.70;;;15.30;99.90;;;;;;4987764;28;25116;-62
2022/07/15 03:00:19;;;;;;;8.25;1.85;;;15.30;99.90;;;;;;4997992;28;25102;-62
2022/07/15 03:02:49;;;;;;;8.93;2.10;;;15.20;99.90;;;;;;4987664;28;25161;-62
2022/07/15 03:05:17;;;;;;;7.82;1.98;;;15.20;99.90;;;;;;5000864;28;25155;-61
2022/07/15 03:07:43;;;;;;;3.25;1.52;;;15.20;99.90;;;;;;4997127;28;25105;-62
2022/07/15 03:10:09;;;;;;;7.47;1.65;;;15.20;99.90;;;;;;4992591;28;25082;-61
2022/07/15 03:12:35;;;;;;;10.38;2.25;;;15.20;99.90;;;;;;4996879;28;25079;-61
2022/07/15 03:15:01;;;;;;;8.63;1.90;;;15.10;99.90;;;;;;5005757;28;25119;-62
2022/07/15 03:17:27;;;;;;;5.07;1.58;;;15.10;99.90;;;;;;4991419;28;25484;-62
2022/07/15 03:19:55;;;;;;;7.57;1.67;;;15.10;99.90;;;;;;4994002;28;25107;-62
2022/07/15 03:22:27;;;;;;;14.23;4.15;;;15.00;99.90;;;;;;4991471;28;25072;-61
2022/07/15 03:24:53;;;;;;;;;;;15.00;99.90;;;;;;4997185;28;25150;-61
2022/07/15 03:27:18;;;;;;;7.28;1.73;;;15.00;99.90;;;;;;5000516;28;25095;-62
2022/07/15 03:29:44;;;;;;;12.23;2.03;;;15.00;99.90;;;;;;5005830;28;25130;-62
2022/07/15 03:32:10;;;;;;;8.27;2.08;;;15.00;99.90;;;;;;4996959;28;25069;-61
2022/07/15 03:34:36;;;;;;;14.27;2.53;;;14.90;99.90;;;;;;5000057;28;25102;-62
2022/07/15 03:37:02;;;;;;;9.13;1.85;;;15.00;99.90;;;;;;4995085;28;25051;-62
2022/07/15 03:39:28;;;;;;;12.63;1.95;;;15.00;99.90;;;;;;5004520;28;25062;-62
2022/07/15 03:41:53;;;;;;;8.52;1.80;;;15.00;99.90;;;;;;4993967;28;25063;-62
2022/07/15 03:44:19;;;;;;;9.35;1.60;;;15.10;99.90;;;;;;4998871;28;25087;-62
2022/07/15 03:46:45;;;;;;;15.63;2.40;;;15.00;99.90;;;;;;4984816;28;25103;-62
2022/07/15 03:49:13;;;;;;;10.35;2.13;;;15.10;99.90;;;;;;4995828;28;25054;-64
2022/07/15 03:51:39;;;;;;;7.57;1.60;;;15.10;99.90;;;;;;4992842;28;25054;-62
2022/07/15 03:54:05;;;;;;;4.95;1.70;;;15.10;99.90;;;;;;5000824;28;25074;-62
2022/07/15 03:56:31;;;;;;;4.80;1.50;;;15.10;99.90;;;;;;4988694;28;25048;-62
2022/07/15 03:58:57;;;;;;;8.27;1.67;;;15.20;99.90;;;;;;4998904;28;25091;-61
2022/07/15 04:01:23;;;;;;;4.63;1.65;;;15.30;99.90;;;;;;4990297;28;25099;-62
2022/07/15 04:03:50;;;;;;;8.02;2.60;;;15.30;99.90;;;;;;4993730;28;25136;-63
2022/07/15 04:06:16;;;;;;;4.47;1.80;;;15.30;99.90;;;;;;4987716;28;25153;-61
2022/07/15 04:08:42;;;;;;;7.18;2.13;;;15.30;99.90;;;;;;4995803;28;25140;-61
2022/07/15 04:11:08;;;;;;;9.43;1.80;;;15.40;99.90;;;;;;4994227;28;25090;-61
2022/07/15 04:13:34;;;;;;;6.30;1.88;;;15.30;99.90;;;;;;4986354;28;25153;-62
2022/07/15 04:15:59;;;;;;;8.75;1.50;;;15.30;99.90;;;;;;4996654;28;25151;-63
2022/07/15 04:18:25;;;;;;;4.60;1.40;;;15.30;99.90;;;;;;4993877;28;25145;-63
2022/07/15 04:20:50;;;;;;;15.10;2.53;;;15.40;99.90;;;;;;4993004;28;25090;-61
2022/07/15 04:23:16;;;;;;;12.82;1.98;;;15.40;99.90;;;;;;4999979;28;25138;-62
2022/07/15 04:25:42;;;;;;;7.68;1.80;;;15.50;99.90;;;;;;4993373;28;25077;-62
2022/07/15 04:28:07;;;;;;;5.20;1.63;;;15.50;99.90;;;;;;4993457;28;25075;-62
2022/07/15 04:30:33;;;;;;;8.68;2.30;;;15.50;99.90;;;;;;4994759;28;25058;-60
2022/07/15 04:32:59;;;;;;;7.18;1.83;;;15.50;99.90;;;;;;4981909;28;25062;-61
2022/07/15 04:35:24;;;;;;;9.00;1.95;;;15.40;99.90;;;;;;4988927;28;25078;-61
2022/07/15 04:37:50;;;;;;;6.40;1.80;;;15.40;99.90;;;;;;4998169;28;25114;-62
2022/07/15 04:40:16;;;;;;;5.97;1.40;;;15.50;99.90;;;;;;4990905;28;25174;-62
2022/07/15 04:42:41;;;;;;;8.75;1.92;;;15.60;99.90;;;;;;4988856;28;25081;-62
2022/07/15 04:45:07;;;;;;;5.50;2.00;;;15.70;99.90;;;;;;4987152;28;25125;-63
2022/07/15 04:47:33;;;;;;;5.45;1.60;;;15.80;99.90;;;;;;4985012;28;25062;-62
2022/07/15 04:52:46;;;;;;;4.35;1.13;;;15.80;99.90;;;;;;4986338;28;25123;-62
2022/07/15 04:55:13;;;;;;;5.60;1.23;;;15.90;99.90;;;;;;4987355;28;25066;-62
2022/07/15 04:57:39;;;;;;;5.97;1.75;;;15.90;99.90;;;;;;4983946;28;25061;-61
2022/07/15 05:00:05;;;;;;;6.00;1.20;;;16.00;99.90;;;;;;4984491;28;25070;-63
2022/07/15 05:02:31;;;;;;;7.03;1.58;;;16.10;99.90;;;;;;4986859;28;25100;-62
2022/07/15 05:04:57;;;;;;;3.38;0.90;;;16.10;99.90;;;;;;4995250;28;25093;-61
2022/07/15 05:07:22;;;;;;;7.43;1.40;;;16.10;99.90;;;;;;4986683;28;25106;-62
2022/07/15 05:09:48;;;;;;;8.68;1.65;;;16.00;99.90;;;;;;4988733;28;25082;-61
2022/07/15 05:12:13;;;;;;;9.00;1.67;;;15.90;99.90;;;;;;4993112;28;25049;-61
2022/07/15 05:14:40;;;;;;;9.43;1.73;;;15.90;99.90;;;;;;4986756;28;25068;-61
2022/07/15 05:17:07;;;;;;;9.70;1.63;;;16.00;99.90;;;;;;4995400;28;25047;-61
2022/07/15 05:19:33;;;;;;;4.85;1.27;;;16.00;99.90;;;;;;4995589;28;25103;-61
2022/07/15 05:21:59;;;;;;;4.80;1.33;;;16.10;99.90;;;;;;4996354;28;25153;-62
2022/07/15 05:24:25;;;;;;;4.78;1.45;;;16.00;99.90;;;;;;4987272;28;25076;-62
2022/07/15 05:26:51;;;;;;;5.38;1.10;;;15.90;99.90;;;;;;4993821;28;25113;-61
2022/07/15 05:29:16;;;;;;;7.55;1.80;;;16.00;99.90;;;;;;4978712;28;25090;-61
2022/07/15 05:31:42;;;;;;;10.10;1.60;;;16.00;99.90;;;;;;4979331;28;25158;-61
2022/07/15 05:34:08;;;;;;;9.38;1.20;;;16.10;99.90;;;;;;4978121;28;25185;-61
2022/07/15 05:36:34;;;;;;;7.95;1.58;;;16.10;99.90;;;;;;4984010;28;25065;-61
2022/07/15 05:39:00;;;;;;;8.95;1.30;;;16.20;99.90;;;;;;4987465;28;25080;-61
2022/07/15 05:41:25;;;;;;;3.63;1.00;;;16.40;99.90;;;;;;4980196;28;25068;-61
2022/07/15 05:43:51;;;;;;;5.80;1.27;;;16.50;99.90;;;;;;4982800;28;25076;-62
2022/07/15 05:46:16;;;;;;;4.47;1.40;;;16.60;99.90;;;;;;4976658;28;25073;-61
2022/07/15 05:48:42;;;;;;;8.05;1.90;;;16.80;99.90;;;;;;4981535;28;25066;-61
2022/07/15 05:51:07;;;;;;;8.63;1.30;;;16.80;99.90;;;;;;4983190;28;25057;-60
2022/07/15 05:53:33;;;;;;;6.05;1.48;;;16.80;99.90;;;;;;4982721;28;25065;-62
2022/07/15 05:55:59;;;;;;;3.83;0.93;;;16.90;99.90;;;;;;4978660;28;25076;-61
2022/07/15 05:58:25;;;;;;;4.90;1.00;;;16.90;99.90;;;;;;4978629;28;25092;-60
2022/07/15 06:00:52;;;;;;;6.57;1.23;;;16.90;99.90;;;;;;4998819;28;25060;-61
2022/07/15 06:03:18;;;;;;;7.57;1.30;;;17.10;99.90;;;;;;4990771;28;25146;-61
2022/07/15 06:05:44;;;;;;;8.32;1.30;;;17.10;99.90;;;;;;4995325;28;25135;-60
2022/07/15 06:08:13;;;;;;;8.52;1.30;;;17.10;99.90;;;;;;4997618;28;25063;-61
2022/07/15 06:10:40;;;;;;;6.55;2.15;;;17.20;99.90;;;;;;4986102;28;25054;-61
2022/07/15 06:13:05;;;;;;;4.65;1.33;;;17.30;99.90;;;;;;4997209;28;25059;-61
2022/07/15 06:15:31;;;;;;;5.47;1.13;;;17.40;99.90;;;;;;4986207;28;25072;-61
2022/07/15 06:17:57;;;;;;;7.80;1.58;;;17.40;99.90;;;;;;4998064;28;25073;-61
2022/07/15 06:20:23;;;;;;;4.93;1.27;;;17.80;99.90;;;;;;4988603;28;25087;-60
2022/07/15 06:22:49;;;;;;;5.93;1.15;;;18.10;99.90;;;;;;4992416;28;25161;-61
2022/07/15 06:25:15;;;;;;;5.60;1.05;;;18.10;99.90;;;;;;4992712;28;25066;-62
2022/07/15 06:27:40;;;;;;;2.97;0.82;;;18.00;99.90;;;;;;4995734;28;25148;-64
2022/07/15 06:30:07;;;;;;;5.47;0.90;;;17.60;99.90;;;;;;4999247;28;25082;-60
2022/07/15 06:32:33;;;;;;;3.47;0.98;;;17.80;99.90;;;;;;4989284;28;25099;-61
2022/07/15 06:34:58;;;;;;;5.18;0.80;;;17.70;99.90;;;;;;5000945;28;25162;-62
2022/07/15 06:37:24;;;;;;;10.77;1.02;;;17.70;99.90;;;;;;4996879;28;25162;-62
2022/07/15 06:39:50;;;;;;;6.35;1.15;;;17.80;99.90;;;;;;4992259;28;25081;-61
2022/07/15 06:42:15;;;;;;;3.58;0.70;;;18.20;99.90;;;;;;4989523;28;25051;-61
2022/07/15 06:44:41;;;;;;;9.27;1.33;;;18.30;99.90;;;;;;4994829;28;25075;-61
2022/07/15 06:47:07;;;;;;;4.03;1.17;;;18.60;99.90;;;;;;4999482;28;25077;-62
2022/07/15 06:49:34;;;;;;;4.75;1.10;;;18.80;99.90;;;;;;4983257;28;25082;-61
2022/07/15 06:52:00;;;;;;;5.32;1.30;;;18.70;99.90;;;;;;4994803;28;25055;-62
2022/07/15 06:54:26;;;;;;;4.82;1.40;;;18.80;99.90;;;;;;4993956;28;25094;-63
2022/07/15 06:56:52;;;;;;;7.50;1.35;;;18.80;99.90;;;;;;4989795;28;25089;-61
2022/07/15 06:59:18;;;;;;;7.75;1.52;;;18.80;99.90;;;;;;4994406;28;25070;-62
2022/07/15 07:01:43;;;;;;;6.38;1.23;;;19.00;99.90;;;;;;4988367;28;25073;-59
2022/07/15 07:04:09;;;;;;;4.70;1.30;;;18.80;99.90;;;;;;5010396;28;25114;-62
2022/07/15 07:06:35;;;;;;;4.35;0.95;;;18.80;99.90;;;;;;5003694;28;25111;-60
2022/07/15 07:09:00;;;;;;;3.38;1.40;;;18.60;99.90;;;;;;4997978;28;25071;-62
2022/07/15 07:11:26;;;;;;;6.82;1.20;;;19.10;99.90;;;;;;5001791;28;25049;-61
2022/07/15 07:13:51;;;;;;;5.65;1.23;;;19.10;99.90;;;;;;5000215;28;25067;-61
2022/07/15 07:16:18;;;;;;;5.45;1.33;;;19.40;99.90;;;;;;5004377;28;25061;-62
2022/07/15 07:18:50;;;;;;;6.45;1.05;;;19.90;99.90;;;;;;4987233;28;25056;-60
2022/07/15 07:21:16;;;;;;;7.78;1.25;;;20.20;99.90;;;;;;4990731;28;25060;-62
2022/07/15 07:23:42;;;;;;;4.38;1.15;;;19.90;99.90;;;;;;4986788;28;25082;-60
2022/07/15 07:26:09;;;;;;;6.85;0.85;;;19.70;99.90;;;;;;4997997;28;25145;-61
2022/07/15 07:28:35;;;;;;;3.22;1.08;;;19.50;99.90;;;;;;4988079;28;25065;-61
2022/07/15 07:31:00;;;;;;;4.28;0.88;;;18.90;99.90;;;;;;5001508;28;25152;-61
2022/07/15 07:33:26;;;;;;;4.35;1.13;;;18.70;99.90;;;;;;4980692;28;25071;-61
2022/07/15 07:35:52;;;;;;;7.60;1.25;;;18.60;99.90;;;;;;4997715;28;25069;-62
2022/07/15 07:38:19;;;;;;;4.68;0.90;;;18.60;99.90;;;;;;4999730;28;25068;-61
2022/07/15 07:40:47;;;;;;;4.82;1.10;;;18.90;99.90;;;;;;4993394;28;25071;-62
2022/07/15 07:43:15;;;;;;;5.78;1.05;;;18.90;99.90;;;;;;4991176;28;25055;-61
2022/07/15 07:45:41;;;;;;;1.55;0.88;;;18.70;99.90;;;;;;4986578;28;25166;-62
2022/07/15 07:48:07;;;;;;;2.22;1.10;;;18.80;99.90;;;;;;4993905;28;25159;-60
2022/07/15 07:50:32;;;;;;;3.47;1.00;;;18.90;99.90;;;;;;4990832;28;25159;-60
2022/07/15 07:52:58;;;;;;;5.32;1.30;;;18.90;99.90;;;;;;4988581;28;25103;-61
2022/07/15 07:55:23;;;;;;;4.65;1.25;;;18.80;99.90;;;;;;4985093;28;25092;-62
2022/07/15 07:57:52;;;;;;;6.35;1.02;;;19.30;99.90;;;;;;4989974;28;25053;-61
2022/07/15 08:00:18;;;;;;;1.88;0.77;;;19.30;99.90;;;;;;4993140;28;25107;-62
2022/07/15 08:02:45;;;;;;;3.25;0.77;;;19.60;99.90;;;;;;4983823;28;25078;-61
2022/07/15 08:05:11;;;;;;;5.57;0.93;;;19.80;99.90;;;;;;4992313;28;25069;-60
2022/07/15 08:07:37;;;;;;;4.03;1.00;;;19.90;99.90;;;;;;4989868;28;25067;-60
2022/07/15 08:10:04;;;;;;;3.78;1.05;;;20.20;99.90;;;;;;4996243;28;25148;-61
2022/07/15 08:12:30;;;;;;;5.80;1.00;;;20.50;99.90;;;;;;4996260;28;25054;-61
2022/07/15 08:14:56;;;;;;;3.17;0.68;;;21.00;99.60;;;;;;4997798;28;25066;-61
2022/07/15 08:17:22;;;;;;;6.10;1.10;;;21.20;96.80;;;;;;4994157;28;25053;-62
2022/07/15 08:19:49;;;;;;;6.25;0.95;;;21.30;96.30;;;;;;4994074;28;25118;-62
2022/07/15 08:22:14;;;;;;;3.92;1.00;;;21.50;94.70;;;;;;4997161;28;25073;-62
2022/07/15 08:24:41;;;;;;;6.10;1.10;;;21.80;91.90;;;;;;4995236;28;25048;-61
2022/07/15 08:27:08;;;;;;;4.63;0.73;;;22.20;89.80;;;;;;5001996;28;25133;-60
2022/07/15 08:29:34;;;;;;;3.40;1.00;;;21.90;78.30;;;;;;5004124;28;25073;-62
2022/07/15 08:32:00;;;;;;;4.72;1.40;;;21.50;89.00;;;;;;5000273;28;25077;-62
2022/07/15 08:34:25;;;;;;;4.18;1.35;;;21.60;87.60;;;;;;5000142;28;25094;-61
2022/07/15 08:36:51;;;;;;;4.90;0.95;;;22.10;86.30;;;;;;4997082;28;25073;-60
2022/07/15 08:39:16;;;;;;;5.90;0.90;;;21.00;85.00;;;;;;4993397;28;25077;-61
2022/07/15 08:41:42;;;;;;;2.30;0.70;;;20.30;89.70;;;;;;4994156;28;25086;-60
2022/07/15 08:44:08;;;;;;;3.42;0.70;;;20.40;92.00;;;;;;4990579;28;25192;-62
2022/07/15 08:46:35;;;;;;;5.68;0.90;;;20.40;89.60;;;;;;5002995;28;25066;-61
2022/07/15 08:49:06;;;;;;;5.85;0.90;;;20.60;80.80;;;;;;5002065;28;25068;-62
2022/07/15 08:51:36;;;;;;;9.15;1.40;;;20.80;79.50;;;;;;4994106;28;25074;-62
2022/07/15 08:54:03;;;;;;;5.20;0.88;;;21.30;68.90;;;;;;4993496;28;25151;-63
2022/07/15 08:56:29;;;;;;;8.55;1.70;;;21.80;61.60;;;;;;4996311;28;25071;-61
2022/07/15 08:58:55;;;;;;;1.35;0.88;;;20.90;55.80;;;;;;4991820;28;25094;-62
2022/07/15 09:01:21;;;;;;;7.97;1.20;;;20.80;67.60;;;;;;4996023;28;25129;-60
2022/07/15 09:03:46;;;;;;;4.55;0.90;;;20.70;75.90;;;;;;5002768;28;25064;-61
2022/07/15 09:06:33;;;;;;;4.40;0.82;;;20.60;76.60;;;;;;4994064;28;25071;-61
2022/07/15 09:09:18;;;;;;;2.65;0.85;;;21.30;71.50;;;;;;4989688;28;25076;-62
2022/07/15 09:12:03;;;;;;;3.03;0.93;;;21.10;64.30;;;;;;5000587;28;25144;-60
2022/07/15 09:14:30;;;;;;;3.97;0.98;;;21.40;69.30;;;;;;4990632;28;25085;-60
2022/07/15 09:17:25;;;;;;;6.38;1.17;;;22.10;61.40;;;;;;5002261;28;25133;-61
2022/07/15 09:20:13;;;;;;;1.40;0.90;;;21.90;61.80;;;;;;4976977;28;25073;-63
2022/07/15 09:22:51;;;;;;;5.55;0.93;;;21.60;59.50;;;;;;4989491;28;25072;-61
2022/07/15 09:25:17;;;;;;;5.47;1.15;;;21.50;61.60;;;;;;4995838;28;25053;-62
2022/07/15 09:27:44;;;;;;;5.57;0.98;;;21.60;60.40;;;;;;4998779;28;25076;-61
2022/07/15 09:36:18;;;;;;;4.97;1.13;;;22.00;64.30;;;;;;4987130;28;25067;-60
2022/07/15 09:38:55;;;;;;;3.95;0.77;;;21.50;65.60;;;;;;4993287;28;25052;-61
2022/07/15 09:41:27;;;;;;;6.93;1.40;;;21.20;75.20;;;;;;4997128;28;25091;-62
2022/07/15 09:44:10;;;;;;;5.72;1.17;;;21.10;79.00;;;;;;4999453;28;25080;-62
2022/07/15 09:47:03;;;;;;;5.78;1.23;;;21.00;82.50;;;;;;4993935;28;25059;-61
2022/07/15 09:49:29;;;;;;;7.55;1.15;;;21.20;80.00;;;;;;4993747;28;25089;-61
2022/07/15 09:52:07;;;;;;;2.35;1.00;;;20.90;78.70;;;;;;4993112;28;25068;-62
2022/07/15 09:54:38;;;;;;;4.82;1.30;;;20.90;79.00;;;;;;4996218;28;25062;-61
2022/07/15 09:57:06;;;;;;;3.42;0.90;;;21.10;82.30;;;;;;5003845;28;25064;-62
2022/07/15 09:59:32;;;;;;;5.60;1.30;;;21.10;77.20;;;;;;5003306;28;25049;-61
2022/07/15 10:01:59;;;;;;;2.70;1.00;;;20.90;74.80;;;;;;5002128;28;25074;-61
2022/07/15 10:04:26;;;;;;;2.75;1.10;;;21.20;71.20;;;;;;5000224;28;25061;-61
2022/07/15 10:06:53;;;;;;;6.68;0.95;;;21.30;68.10;;;;;;5001659;28;25073;-62
2022/07/15 10:09:24;;;;;;;4.78;1.10;;;22.00;69.80;;;;;;4989932;28;25067;-61
2022/07/15 10:11:52;;;;;;;1.60;0.70;;;21.90;65.20;;;;;;5001729;28;25072;-61
2022/07/15 10:14:46;;;;;;;3.92;1.10;;;21.50;68.90;;;;;;5002927;28;25076;-61
2022/07/15 10:17:21;;;;;;;107.82;18.45;;;22.00;64.80;;;;;;5001079;28;25072;-62
2022/07/15 10:20:16;;;;;;;7.00;1.50;;;22.80;52.10;;;;;;4997107;28;25080;-62
2022/07/15 10:23:05;;;;;;;2.15;0.95;;;23.10;42.50;;;;;;5001177;28;25115;-62
2022/07/15 10:25:55;;;;;;;2.90;0.80;;;23.40;29.20;;;;;;4987947;28;25085;-62
2022/07/15 10:28:24;;;;;;;2.30;0.90;;;24.10;20.70;;;;;;5001297;28;25083;-61
2022/07/15 10:31:26;;;;;;;1.95;1.00;;;23.10;16.00;;;;;;5013369;28;25052;-61
2022/07/15 10:34:04;;;;;;;4.93;1.05;;;22.00;31.40;;;;;;4997564;28;25052;-62
2022/07/15 10:36:39;;;;;;;3.65;0.85;;;21.40;55.70;;;;;;4998615;28;25074;-62
2022/07/15 10:39:05;;;;;;;2.95;0.80;;;20.80;63.50;;;;;;5005099;28;25095;-61
2022/07/15 10:42:02;;;;;;;3.72;1.38;;;20.80;72.00;;;;;;4996907;28;25097;-61
2022/07/15 10:44:32;;;;;;;9.13;1.65;;;20.70;72.90;;;;;;5000055;28;25068;-60
2022/07/15 10:47:13;;;;;;;2.78;1.00;;;20.80;68.60;;;;;;4995988;28;25091;-62
2022/07/15 10:49:44;;;;;;;3.75;0.90;;;21.80;64.30;;;;;;4995524;28;25044;-61
2022/07/15 10:52:18;;;;;;;1.88;0.90;;;22.50;55.40;;;;;;5002007;28;25114;-60
2022/07/15 10:54:47;;;;;;;4.13;1.30;;;22.20;36.90;;;;;;5001587;28;25056;-60
2022/07/15 10:57:15;;;;;;;5.57;1.13;;;21.50;50.30;;;;;;5001818;28;25051;-62
2022/07/15 10:59:56;;;;;;;5.47;1.40;;;21.40;56.60;;;;;;5001362;28;25141;-62
2022/07/15 11:02:24;;;;;;;5.70;1.20;;;21.20;60.00;;;;;;4997132;28;25049;-60
2022/07/15 11:04:51;;;;;;;3.08;1.13;;;21.40;60.30;;;;;;5000272;28;25084;-60
2022/07/15 11:07:17;;;;;;;2.67;1.02;;;21.20;64.20;;;;;;5003180;28;25097;-61
2022/07/15 11:09:48;;;;;;;3.40;1.08;;;21.10;67.20;;;;;;4995986;28;25105;-63
2022/07/15 11:12:23;;;;;;;6.45;1.33;;;21.40;63.60;;;;;;4997976;28;25065;-61
2022/07/15 11:14:57;;;;;;;4.78;1.27;;;21.30;65.50;;;;;;5004603;28;25066;-61
2022/07/15 11:17:28;;;;;;;2.53;1.23;;;21.50;60.40;;;;;;4996846;28;25080;-61
2022/07/15 11:19:59;;;;;;;9.88;1.92;;;21.50;62.70;;;;;;4990727;28;25064;-62
2022/07/15 11:22:27;;;;;;;6.40;1.20;;;22.10;62.10;;;;;;4994576;28;25060;-62
2022/07/15 11:24:54;;;;;;;3.80;1.25;;;22.20;54.20;;;;;;4997517;28;25103;-61
2022/07/15 11:27:24;;;;;;;6.85;1.52;;;21.80;58.40;;;;;;4995636;28;25064;-61
2022/07/15 11:29:53;;;;;;;2.08;1.10;;;22.00;59.10;;;;;;5007245;28;25098;-61
2022/07/15 11:32:21;;;;;;;3.90;1.40;;;21.90;59.90;;;;;;4993635;28;25149;-63
2022/07/15 11:34:51;;;;;;;2.03;1.17;;;21.80;65.60;;;;;;5003284;28;25045;-62
2022/07/15 11:37:20;;;;;;;4.38;1.30;;;21.30;65.00;;;;;;4986715;28;25078;-62
2022/07/15 11:39:47;;;;;;;5.72;1.70;;;21.10;73.90;;;;;;5000782;28;25076;-62
2022/07/15 11:45:07;;;;;;;7.38;1.58;;;21.20;78.50;;;;;;4992191;28;25057;-61
2022/07/15 11:47:33;;;;;;;11.60;1.52;;;21.60;78.80;;;;;;5010340;28;25133;-61
2022/07/15 11:50:00;;;;;;;5.53;1.25;;;21.40;74.80;;;;;;4997472;28;25119;-60
2022/07/15 11:52:26;;;;;;;4.35;1.67;;;21.00;77.20;;;;;;4992551;28;25145;-61
2022/07/15 11:54:52;;;;;;;3.50;1.50;;;20.70;76.90;;;;;;4987583;28;25084;-62
2022/07/15 11:57:18;;;;;;;4.95;1.55;;;20.70;80.70;;;;;;4997006;28;25053;-62
2022/07/15 11:59:56;;;;;;;6.20;1.83;;;21.30;81.10;;;;;;4989244;28;25119;-62
2022/07/15 12:02:26;;;;;;;4.45;1.15;;;21.90;63.50;;;;;;4997021;28;25147;-61
2022/07/15 12:05:00;;;;;;;6.32;1.40;;;21.70;61.10;;;;;;4997152;28;25079;-64
2022/07/15 12:07:40;;;;;;;4.53;1.20;;;21.40;67.50;;;;;;4995524;28;25052;-61
2022/07/15 12:10:07;;;;;;;2.05;1.15;;;22.50;55.70;;;;;;4993384;28;25056;-61
2022/07/15 12:12:32;;;;;;;3.00;0.80;;;23.10;39.70;;;;;;4996509;28;25137;-62
2022/07/15 12:14:58;;;;;;;2.28;1.02;;;23.60;29.40;;;;;;4998446;28;25076;-63
2022/07/15 12:17:24;;;;;;;3.47;1.30;;;24.10;13.80;;;;;;4988588;28;25148;-63
2022/07/15 12:19:51;;;;;;;5.00;1.10;;;24.30;6.60;;;;;;4993634;28;25062;-62
2022/07/15 12:22:17;;;;;;;2.95;1.40;;;24.10;1.00;;;;;;4999428;28;25117;-63
2022/07/15 12:24:51;;;;;;;10.35;2.47;;;23.70;1.00;;;;;;4995447;28;25095;-63
2022/07/15 12:27:18;;;;;;;3.50;1.33;;;23.60;7.70;;;;;;4997007;28;25071;-62
2022/07/15 12:29:44;;;;;;;3.65;1.60;;;24.50;2.40;;;;;;5003749;28;25063;-64
2022/07/15 12:32:13;;;;;;;1.45;0.90;;;25.00;1.00;;;;;;4995120;28;25051;-62
2022/07/15 12:34:52;;;;;;;2.67;1.15;;;24.70;1.00;;;;;;5000589;28;25068;-61
2022/07/15 12:37:19;;;;;;;3.17;1.08;;;24.10;1.00;;;;;;4995362;28;25081;-61
2022/07/15 12:40:00;;;;;;;4.32;1.00;;;24.70;1.00;;;;;;4999854;28;25068;-61
2022/07/15 12:42:50;;;;;;;3.63;0.90;;;24.80;1.00;;;;;;4999421;28;25060;-60
2022/07/15 12:45:24;;;;;;;1.08;0.90;;;23.90;1.00;;;;;;4999891;28;25146;-61
2022/07/15 12:48:06;;;;;;;3.63;0.98;;;23.90;1.00;;;;;;4996182;28;25146;-63
2022/07/15 12:50:55;;;;;;;5.75;1.20;;;23.70;2.40;;;;;;5001922;28;25060;-62
2022/07/15 12:53:23;;;;;;;4.15;1.35;;;23.60;10.00;;;;;;4994184;28;25135;-61
2022/07/15 12:55:50;;;;;;;5.28;1.67;;;24.00;15.30;;;;;;4997329;28;25136;-63
2022/07/15 12:58:23;;;;;;;1.80;1.27;;;23.80;10.50;;;;;;4999745;28;25072;-61
2022/07/15 13:00:49;;;;;;;3.70;1.40;;;24.00;10.50;;;;;;4997924;28;25127;-61
2022/07/15 13:03:22;;;;;;;4.75;1.30;;;23.90;4.20;;;;;;4997894;28;25172;-61
2022/07/15 13:05:54;;;;;;;4.80;1.20;;;23.40;12.20;;;;;;4999902;28;25086;-60